Flight Track Log - Related Links

Times and Time Zones

All times are in EDT time to prevent confusion due to time zone crossing. See the 9Y-BGI flight status page for this flight to view local times or setup timezone preferences in your user account.

Time Position Orientation Groundspeed Altitude Reporting Facility
EDT Latitude Longitude Course Direction KTS MPH feet Rate Location/Type
Sun 11:06:00 AM 18.8422 -76.8613 356° North  Level FlightAware Approximate
Sun 11:07:00 AM 18.9555 -76.8706 356° North  Level FlightAware Approximate
Sun 11:08:00 AM 19.0688 -76.8799 356° North  Level FlightAware Approximate
Sun 11:09:00 AM 19.1821 -76.8892 356° North  Level FlightAware Approximate
Sun 11:10:00 AM 19.2954 -76.8986 356° North  Level FlightAware Approximate
Sun 11:11:00 AM 19.4087 -76.9079 356° North  Level FlightAware Approximate
Sun 11:12:00 AM 19.5220 -76.9173 356° North  Level FlightAware Approximate
Sun 11:13:00 AM 19.6353 -76.9266 356° North  Level FlightAware Approximate
Sun 11:14:00 AM 19.7281 -76.9343 355° North  Level FlightAware Approximate
Sun 11:15:00 AM 19.8414 -76.9442 355° North  Level FlightAware Approximate
Sun 11:16:00 AM 19.9547 -76.9541 355° North  Level FlightAware Approximate
Sun 11:17:00 AM 20.0679 -76.9640 355° North  Level FlightAware Approximate
Sun 11:18:00 AM 20.1812 -76.9739 355° North  Level FlightAware Approximate
Sun 11:19:00 AM 20.2945 -76.9838 355° North  Level FlightAware Approximate
Sun 11:20:00 AM 20.4077 -76.9938 355° North  Level FlightAware Approximate
Sun 11:21:00 AM 20.5210 -77.0037 355° North  Level FlightAware Approximate
Sun 11:22:00 AM 20.6343 -77.0137 355° North  Level FlightAware Approximate
Sun 11:23:00 AM 20.7476 -77.0237 355° North  Level FlightAware Approximate
Sun 11:24:00 AM 20.8608 -77.0337 355° North  Level FlightAware Approximate
Sun 11:25:00 AM 20.9741 -77.0437 355° North  Level FlightAware Approximate
Sun 11:26:00 AM 21.0873 -77.0537 355° North  Level FlightAware Approximate
Sun 11:27:00 AM 21.2006 -77.0638 355° North  Level FlightAware Approximate
Sun 11:28:00 AM 21.3139 -77.0738 355° North  Level FlightAware Approximate
Sun 11:29:00 AM 21.4271 -77.0839 355° North  Level FlightAware Approximate
Sun 11:30:00 AM 21.5404 -77.0940 355° North  Level FlightAware Approximate
Sun 11:31:00 AM 21.6536 -77.1041 355° North  Level FlightAware Approximate
Sun 11:32:00 AM 21.7669 -77.1143 355° North  Level FlightAware Approximate
Sun 11:33:00 AM 21.8802 -77.1244 355° North  Level FlightAware Approximate
Sun 11:34:00 AM 21.9934 -77.1346 355° North  Level FlightAware Approximate
Sun 11:35:00 AM 22.1067 -77.1447 355° North  Level FlightAware Approximate
Sun 11:36:00 AM 22.2199 -77.1549 355° North  Level FlightAware Approximate
Sun 11:37:00 AM 22.3332 -77.1651 355° North  Level FlightAware Approximate
Sun 11:38:00 AM 22.4465 -77.1753 355° North  Level FlightAware Approximate
Sun 11:39:00 AM 22.5597 -77.1856 355° North  Level FlightAware Approximate
Sun 11:40:00 AM 22.6730 -77.1958 355° North  Level FlightAware Approximate
Sun 11:41:00 AM 22.7862 -77.2061 355° North  Level FlightAware Approximate
Sun 11:42:00 AM 22.8995 -77.2164 355° North  Level FlightAware Approximate
Sun 11:43:00 AM 23.0127 -77.2267 355° North  Level FlightAware Approximate
Sun 11:43:39 AM 22.8069 -77.3186 355° North 461 531 34,000  Level Miami Center
Sun 11:44:00 AM 23.1260 -77.2370 355° North  Level FlightAware Approximate
Sun 11:44:39 AM 22.9261 -77.3236 358° North 455 524 34,000  Level Miami Center
Sun 11:45:00 AM 23.2392 -77.2474 355° North  Level FlightAware Approximate
Sun 11:45:39 AM 23.0492 -77.3331 356° North 437 503 34,000  Level Miami Center
Sun 11:46:00 AM 23.3525 -77.2577 355° North  Level FlightAware Approximate
Sun 11:46:39 AM 23.1683 -77.3381 358° North 432 497 34,000  Level Miami Center
Sun 11:47:00 AM 23.4658 -77.2667 North  Level FlightAware Approximate
Sun 11:47:39 AM 23.2894 -77.3475 356° North 432 497 34,000  Level Miami Center
Sun 11:48:00 AM 23.5794 -77.2667 North  Level FlightAware Approximate
Sun 11:48:39 AM 23.4106 -77.3547 357° North 427 491 34,000  Level Miami Center
Sun 11:49:00 AM 23.6926 -77.2773 355° North  Level FlightAware Approximate
Sun 11:49:39 AM 23.5278 -77.3619 357° North 433 498 34,000  Level Miami Center
Sun 11:50:39 AM 23.6342 -77.3647 359° North 428 493 34,000  Level Miami Center
Sun 11:51:39 AM 23.7556 -77.3719 357° North 428 493 34,000  Level Miami Center
Sun 11:53:00 AM 23.9088 -77.3797 357° North  Level FlightAware Approximate
Sun 11:53:39 AM 23.9958 -77.3911 357° North 423 487 34,000  Level Miami Center
Sun 11:54:39 AM 24.1147 -77.3939 359° North 423 487 34,000  Level Miami Center
Sun 11:55:39 AM 24.2319 -77.4011 357° North 423 487 34,000  Level Miami Center
Sun 11:56:39 AM 24.3531 -77.4064 358° North 423 487 34,000  Level Miami Center
Sun 11:57:39 AM 24.4722 -77.4158 356° North 423 487 34,000  Level Miami Center
Sun 11:58:39 AM 24.5953 -77.4189 359° North 423 487 34,000  Level Miami Center
Sun 11:59:39 AM 24.7144 -77.4283 356° North 423 487 34,000  Level Miami Center
Sun 12:00:39 PM 24.8314 -77.4358 357° North 423 487 34,000  Level Miami Center
Sun 12:01:39 PM 24.9611 -77.4433 357° North 429 494 34,000  Level Miami Center
Sun 12:02:39 PM 25.0822 -77.4486 358° North 441 507 34,000  Level Miami Center
Sun 12:03:39 PM 25.2075 -77.4583 356° North 446 513 34,000  Level Miami Center
Sun 12:04:39 PM 25.3289 -77.4658 357° North 440 506 34,000  Level Miami Center
Sun 12:05:39 PM 25.4500 -77.4733 357° North 435 501 34,000  Level Miami Center
Sun 12:06:39 PM 25.5836 -77.4808 357° North 435 501 34,000  Level Miami Center
Sun 12:07:39 PM 25.7069 -77.4883 357° North 435 501 34,000 100 Level Miami Center
Sun 12:08:39 PM 25.8281 -77.4958 357° North 440 506 34,200 500 Climbing Miami Center
Sun 12:09:39 PM 25.9514 -77.5011 358° North 440 506 35,000 400 Climbing Miami Center
Sun 12:10:39 PM 26.0767 -77.5089 357° North 440 506 35,000  Level Miami Center
Sun 12:11:39 PM 26.1978 -77.5189 356° North 440 506 35,000  Level Miami Center
Sun 12:12:39 PM 26.3231 -77.5217 359° North 440 506 35,000  Level Miami Center
Sun 12:13:39 PM 26.4486 -77.5294 357° North 440 506 35,000  Level Miami Center
Sun 12:14:39 PM 26.5717 -77.5394 356° North 440 506 35,000  Level Miami Center
Sun 12:15:39 PM 26.6950 -77.5494 356° North 440 506 35,000  Level Miami Center
Sun 12:16:39 PM 26.8181 -77.5572 357° North 440 506 35,000  Level Miami Center
Sun 12:17:39 PM 26.9414 -77.5625 358° North 440 506 35,000  Level Miami Center
Sun 12:18:39 PM 27.0667 -77.5750 355° North 440 506 35,000  Level Miami Center
Sun 12:19:39 PM 27.1942 -77.5758 360° North 440 506 35,000  Level Miami Center
Sun 12:20:39 PM 27.3194 -77.5858 356° North 440 506 35,000  Level Miami Center
Sun 12:21:39 PM 27.4322 -77.5911 358° North 445 512 35,000  Level Miami Center
Sun 12:22:39 PM 27.5594 -77.6014 356° North 445 512 35,000 -50 Level Miami Center
Sun 12:23:39 PM 27.6869 -77.6117 356° North 445 512 34,900 -50 Descending Miami Center
Sun 12:24:39 PM 27.8164 -77.6172 358° North 453 521 34,900  Level Miami Center
Sun 12:25:39 PM 27.9372 -77.6250 357° North 451 519 34,900  Level Miami Center
Sun 12:26:39 PM 28.0647 -77.6328 357° North 457 526 34,900  Level Miami Center
Sun 12:27:39 PM 28.1983 -77.6408 357° North 457 526 34,900  Level Miami Center
Sun 12:28:39 PM 28.3214 -77.6464 358° North 455 524 34,900  Level Miami Center
Sun 12:29:39 PM 28.4611 -77.6544 357° North 463 533 34,900  Level Miami Center
Sun 12:30:39 PM 28.5928 -77.6600 358° North 504 580 34,900  Level Miami Center
Sun 12:31:39 PM 28.7367 -77.6706 356° North 460 529 34,900 50 Level Miami Center
Sun 12:32:39 PM 28.8536 -77.6714 360° North 457 526 35,000  Climbing Miami Center
Sun 12:33:39 PM 28.9892 -77.6819 356° North 468 539 34,900 -50 Descending Miami Center
Sun 12:34:39 PM 29.1206 -77.6878 358° North 468 539 34,900  Level Miami Center
Sun 12:35:39 PM 29.2478 -77.6933 358° North 468 539 34,900  Level Miami Center
Sun 12:36:39 PM 29.3769 -77.7014 357° North 468 539 34,900  Level Miami Center
Sun 12:38:45 PM 29.6497 -77.7097 358° North 458 527 34,900 32 Level Jacksonville Center
Sun 12:39:45 PM 29.7794 -77.7150 358° North 471 542 35,000  Climbing Jacksonville Center
Sun 12:40:45 PM 29.9156 -77.7244 357° North 477 549 34,900 -50 Descending Jacksonville Center
Sun 12:41:45 PM 30.0472 -77.7292 358° North 472 543 34,900  Level Jacksonville Center
Sun 12:42:45 PM 30.1708 -77.7394 356° North 480 552 34,900  Level Jacksonville Center
Sun 12:43:45 PM 30.3147 -77.7367 North 485 558 34,900  Level Jacksonville Center
Sun 12:44:45 PM 30.4483 -77.7439 357° North 481 554 34,900  Level Jacksonville Center
Sun 12:45:45 PM 30.5825 -77.7558 356° North 481 554 34,900  Level Jacksonville Center
Sun 12:46:45 PM 30.7161 -77.7558 360° North 481 554 34,900  Level Jacksonville Center
Sun 12:47:45 PM 30.8522 -77.7678 356° North 481 554 34,900  Level Jacksonville Center
Sun 12:48:45 PM 30.9883 -77.7797 356° North 481 554 34,900  Level Jacksonville Center
Sun 12:49:45 PM 31.1225 -77.7919 356° North 481 554 34,900  Level Jacksonville Center
Sun 12:50:45 PM 31.2564 -77.8017 356° North 481 554 34,900  Level Jacksonville Center
Sun 12:51:45 PM 31.3922 -77.8064 358° North 481 554 34,900  Level Jacksonville Center
Sun 12:52:45 PM 31.5303 -77.8136 357° North 481 554 34,900  Level Jacksonville Center
Sun 12:53:45 PM 31.6642 -77.8183 358° North 481 554 34,900  Level Jacksonville Center
Sun 12:54:45 PM 31.8022 -77.8256 357° North 486 559 34,900  Level Jacksonville Center
Sun 12:55:45 PM 31.9381 -77.8328 357° North 486 559 34,900  Level Jacksonville Center
Sun 12:56:45 PM 32.0742 -77.8425 357° North 486 559 34,900  Level Jacksonville Center
Sun 12:57:45 PM 32.2081 -77.8522 356° North 486 559 34,900  Level Jacksonville Center
Sun 12:58:45 PM 32.3397 -77.8572 358° North 481 554 34,900  Level Jacksonville Center
Sun 12:59:45 PM 32.4739 -77.8669 357° North 481 554 34,900  Level Jacksonville Center
Sun 01:00:45 PM 32.6056 -77.8769 356° North 481 554 34,900  Level Jacksonville Center
Sun 01:01:45 PM 32.7394 -77.8844 357° North 481 554 34,900  Level Jacksonville Center
Sun 01:02:45 PM 32.8711 -77.8894 358° North 481 554 34,900  Level Jacksonville Center
Sun 01:03:45 PM 33.0050 -77.8967 357° North 481 554 34,900  Level Jacksonville Center
Sun 01:05:28 PM 33.2211 -77.9100 357° North 479 551 34,900  Level Washington Center
Sun 01:06:28 PM 33.3544 -77.9186 357° North 474 545 34,900  Level Washington Center
Sun 01:07:28 PM 33.4836 -77.9269 357° North 474 545 34,900  Level Washington Center
Sun 01:08:28 PM 33.6169 -77.9358 357° North 474 545 34,900  Level Washington Center
Sun 01:09:28 PM 33.7503 -77.9419 358° North 474 545 34,900  Level Washington Center
Sun 01:10:28 PM 33.8836 -77.9508 357° North 474 545 34,900 50 Level Washington Center
Sun 01:11:28 PM 34.0317 -77.9600 357° North 479 551 35,000 50 Climbing Washington Center
Sun 01:12:28 PM 34.1675 -77.9414 North 485 558 35,000 -50 Level Washington Center
Sun 01:13:28 PM 34.3053 -77.9453 359° North 485 558 34,900 -50 Descending Washington Center
Sun 01:14:28 PM 34.4406 -77.9567 356° North 485 558 34,900  Level Washington Center
Sun 01:15:28 PM 34.5739 -77.9656 357° North 485 558 34,900  Level Washington Center
Sun 01:16:28 PM 34.7114 -77.9747 357° North 485 558 34,900 50 Level Washington Center
Sun 01:17:28 PM 34.8303 -77.9806 358° North 479 551 35,000 50 Climbing Washington Center
Sun 01:18:29 PM 34.9636 -77.9919 356° North 479 551 35,000  Level Washington Center
Sun 01:19:28 PM 35.0989 -78.0011 357° North 479 551 35,000  Level Washington Center
Sun 01:20:28 PM 35.2344 -78.0103 357° North 479 551 35,000  Level Washington Center
Sun 01:21:28 PM 35.3739 -78.0222 356° North 479 551 35,000  Level Washington Center
Sun 01:22:28 PM 35.5072 -78.0314 357° North 479 551 35,000  Level Washington Center
Sun 01:23:29 PM 35.6450 -78.0406 357° North 479 551 35,000  Level Washington Center
Sun 01:24:28 PM 35.7803 -78.0525 356° North 479 551 35,000  Level Washington Center
Sun 01:25:28 PM 35.9136 -78.0644 356° North 479 551 35,000  Level Washington Center
Sun 01:26:28 PM 36.0469 -78.0736 357° North 479 551 35,000  Level Washington Center
Sun 01:27:28 PM 36.1803 -78.0831 357° North 479 551 35,000  Level Washington Center
Sun 01:28:28 PM 36.3156 -78.0950 356° North 479 551 35,000  Level Washington Center
Sun 01:29:28 PM 36.4572 -78.1072 356° North 471 542 35,000  Level Washington Center
Sun 01:30:28 PM 36.5886 -78.1142 358° North 471 542 35,000  Level Washington Center
Sun 01:31:29 PM 36.7197 -78.1261 356° North 471 542 35,000  Level Washington Center
Sun 01:32:29 PM 36.8550 -78.1358 357° North 471 542 35,000  Level Washington Center
Sun 01:33:29 PM 36.9864 -78.1453 357° North 477 549 35,000  Level Washington Center
Sun 01:34:28 PM 37.1217 -78.1550 357° North 477 549 35,000  Level Washington Center
Sun 01:35:28 PM 37.2531 -78.1644 357° North 477 549 35,000  Level Washington Center
Sun 01:36:28 PM 37.3739 -78.1739 356° North 477 549 35,000  Level Washington Center
Sun 01:37:28 PM 37.5092 -78.1864 356° North 477 549 35,000  Level Washington Center
Sun 01:38:29 PM 37.6425 -78.1961 357° North 477 549 35,000  Level Washington Center
Sun 01:39:28 PM 37.7778 -78.2086 356° North 477 549 35,000  Level Washington Center
Sun 01:40:28 PM 37.9256 -78.2164 358° North 477 549 35,000  Level Washington Center
Sun 01:41:29 PM 38.0544 -78.2342 354° North 477 549 35,000  Level Washington Center
Sun 01:42:29 PM 38.1858 -78.2414 358° North 472 543 35,000  Level Washington Center
Sun 01:43:29 PM 38.3189 -78.2514 357° North 472 543 35,000  Level Washington Center
Sun 01:44:28 PM 38.4522 -78.2642 356° North 477 549 35,000  Level Washington Center
Sun 01:45:28 PM 38.5853 -78.2742 357° North 477 549 35,000  Level Washington Center
Sun 01:46:28 PM 38.7206 -78.2844 357° North 477 549 35,000  Level Washington Center
Sun 01:47:28 PM 38.8539 -78.2947 357° North 477 549 35,000  Level Washington Center
Sun 01:48:28 PM 38.9850 -78.3022 357° North 477 549 35,000  Level Washington Center
Sun 01:49:28 PM 39.1203 -78.3153 356° North 477 549 35,000  Level Washington Center
Sun 01:50:28 PM 39.2514 -78.3256 357° North 477 549 35,000  Level Washington Center
Sun 01:52:04 PM 39.4469 -78.3439 356° North 483 556 35,000  Level Cleveland Center
Sun 01:53:04 PM 39.5764 -78.3531 357° North 477 549 35,000  Level Cleveland Center
Sun 01:54:04 PM 39.7058 -78.3622 357° North 472 543 35,000  Level Cleveland Center
Sun 01:55:04 PM 39.8311 -78.3772 355° North 460 529 35,000  Level Cleveland Center
Sun 01:56:04 PM 39.9606 -78.3864 357° North 460 529 35,000  Level Cleveland Center
Sun 01:57:04 PM 40.0919 -78.3983 356° North 465 535 35,000  Level Cleveland Center
Sun 01:58:04 PM 40.2236 -78.4078 357° North 465 535 35,000  Level Cleveland Center
Sun 01:59:04 PM 40.3531 -78.4200 356° North 465 535 35,000  Level Cleveland Center
Sun 02:00:04 PM 40.4847 -78.4292 357° North 465 535 35,000  Level Cleveland Center
Sun 02:01:04 PM 40.6161 -78.4414 356° North 465 535 35,000 -500 Level Cleveland Center
Sun 02:02:04 PM 40.7456 -78.4536 356° North 465 535 34,000 -500 Descending Cleveland Center
Sun 02:03:04 PM 40.8772 -78.4631 357° North 460 529 34,000  Level Cleveland Center
Sun 02:04:04 PM 41.0067 -78.4756 356° North 460 529 34,000  Level Cleveland Center
Sun 02:05:04 PM 41.1361 -78.4878 356° North 460 529 34,000  Level Cleveland Center
Sun 02:06:04 PM 41.2656 -78.4975 357° North 460 529 34,000  Level Cleveland Center
Sun 02:07:04 PM 41.4056 -78.5097 356° North 460 529 34,000  Level Cleveland Center
Sun 02:08:04 PM 41.5267 -78.5197 356° North 460 529 34,000 -500 Level Cleveland Center
Sun 02:09:04 PM 41.6539 -78.5294 357° North 460 529 33,000 -950 Descending Cleveland Center
Sun 02:10:04 PM 41.7814 -78.5447 355° North 460 529 32,100 -500 Descending Cleveland Center
Sun 02:11:04 PM 41.9131 -78.5575 356° North 460 529 32,000 -50 Descending Cleveland Center
Sun 02:12:04 PM 42.0425 -78.5672 357° North 460 529 32,000  Level Cleveland Center
Sun 02:13:04 PM 42.1844 -78.5794 356° North 469 540 32,000 -50 Level Cleveland Center
Sun 02:14:04 PM 42.3117 -78.5925 356° North 463 533 31,900 -600 Descending Cleveland Center
Sun 02:15:04 PM 42.4369 -78.6025 357° North 457 526 30,800 -1,050 Descending Cleveland Center
Sun 02:16:04 PM 42.5581 -78.6128 356° North 452 520 29,800 -1,000 Descending Cleveland Center
Sun 02:17:04 PM 42.6811 -78.6258 356° North 441 507 28,800 -1,000 Descending Cleveland Center
Sun 02:18:04 PM 42.7939 -78.6336 357° North 428 493 27,800 -1,350 Descending Cleveland Center
Sun 02:19:04 PM 42.9067 -78.6500 354° North 415 478 26,100 -1,850 Descending Cleveland Center
Sun 02:20:04 PM 42.9792 -78.7386 318° Northwest 351 404 24,100 -4,550 Descending Cleveland Center
Sun 02:21:04 PM 43.0369 -78.8450 307° West 343 395 17,000 -7,100 Descending Cleveland Center

Login

Don't have an account? Register now (free) for customized features, flight alerts, and more!